This is the latest recevied weather packets stored in our database for station/object KQ4HEI. If no packets are shown the sender has not sent any weather packets the latest 10 day(s).
| Time | Temp. | Humidity | Pressure | Rain* | Wind** | Luminosity | Snow |
|---|---|---|---|---|---|---|---|
| 1788105692 | 32.22° C | 75% | 1017.9 hPa | 0 mm | - | - | - |
| 1788105092 | 31.67° C | 74% | 1017.8 hPa | 0 mm | - | - | - |
| 1788104493 | 32.22° C | 75% | 1017.8 hPa | 0 mm | - | - | - |
| 1788103891 | 30.56° C | 77% | 1017.9 hPa | 0 mm | - | - | - |
| 1788103292 | 31.11° C | 77% | 1017.7 hPa | 0 mm | - | - | - |
| 1788102693 | 30° C | 79% | 1017.7 hPa | 0 mm | - | - | - |
| 1788102092 | 30.56° C | 79% | 1017.7 hPa | 0 mm | - | - | - |
| 1788101491 | 30.56° C | 79% | 1017.7 hPa | 0 mm | - | - | - |
| 1788100893 | 29.44° C | 82% | 1017.8 hPa | 0 mm | - | - | - |
| 1788100292 | 28.89° C | 83% | 1017.7 hPa | 0 mm | - | - | - |
| 1788099692 | 28.89° C | 83% | 1017.6 hPa | 0 mm | - | - | - |
| 1788099092 | 28.89° C | 84% | 1017.7 hPa | 0 mm | - | - | - |
| 1788098492 | 28.33° C | 86% | 1017.7 hPa | 0 mm | - | - | - |
| 1788097892 | 27.78° C | 86% | 1017.7 hPa | 0 mm | - | - | - |
| 1788097292 | 27.78° C | 85% | 1017.6 hPa | 0 mm | - | - | - |
| 1788096692 | 27.78° C | 87% | 1017.5 hPa | 0 mm | - | - | - |
| 1788096093 | 27.22° C | 88% | 1017.5 hPa | 0 mm | - | - | - |
| 1788095492 | 27.22° C | 88% | 1017.5 hPa | 0 mm | - | - | - |
| 1788094892 | 26.67° C | 90% | 1017.4 hPa | 0 mm | - | - | - |
| 1788094292 | 25.56° C | 93% | 1017.4 hPa | 0 mm | - | - | - |
| 1788093692 | 24.44° C | 97% | 1017.4 hPa | 0 mm | - | - | - |
| 1788093091 | 23.33° C | 99% | 1017.4 hPa | 0 mm | - | - | - |
| 1788092493 | 22.78° C | 99% | 1017.2 hPa | 0 mm | - | - | - |
| 1788091892 | 22.78° C | 99% | 1017.2 hPa | 0 mm | - | - | - |
| 1788091292 | 22.78° C | 99% | 1017.1 hPa | 0 mm | - | - | - |
* Rain latest hour (hover to see other rain measurements)
** Current wind speed in m/s (hover to see current wind gust speed)